sensor_id;sensor_type;location;lat;lon;timestamp;P1;durP1;ratioP1;P2;durP2;ratioP2
85662;SDS011;76094;55.506;37.950;2024-03-06T00:00:06;3.53;;;1.60;;
85662;SDS011;76094;55.506;37.950;2024-03-06T00:02:34;2.00;;;1.55;;
85662;SDS011;76094;55.506;37.950;2024-03-06T00:05:02;3.25;;;1.50;;
85662;SDS011;76094;55.506;37.950;2024-03-06T00:07:30;5.28;;;1.75;;
85662;SDS011;76094;55.506;37.950;2024-03-06T00:09:56;3.00;;;1.40;;
85662;SDS011;76094;55.506;37.950;2024-03-06T00:12:23;4.13;;;2.13;;
85662;SDS011;76094;55.506;37.950;2024-03-06T00:14:49;3.03;;;1.85;;
85662;SDS011;76094;55.506;37.950;2024-03-06T00:17:15;2.38;;;1.42;;
85662;SDS011;76094;55.506;37.950;2024-03-06T00:19:42;2.70;;;1.73;;
85662;SDS011;76094;55.506;37.950;2024-03-06T00:22:09;2.83;;;1.60;;
85662;SDS011;76094;55.506;37.950;2024-03-06T00:24:35;2.85;;;1.70;;
85662;SDS011;76094;55.506;37.950;2024-03-06T00:27:02;2.92;;;1.50;;
85662;SDS011;76094;55.506;37.950;2024-03-06T00:29:30;3.47;;;1.90;;
85662;SDS011;76094;55.506;37.950;2024-03-06T00:31:57;2.70;;;1.83;;
85662;SDS011;76094;55.506;37.950;2024-03-06T00:34:24;3.30;;;2.08;;
85662;SDS011;76094;55.506;37.950;2024-03-06T00:36:51;2.85;;;1.95;;
85662;SDS011;76094;55.506;37.950;2024-03-06T00:39:17;6.07;;;2.25;;
85662;SDS011;76094;55.506;37.950;2024-03-06T05:07:46;6.00;;;3.35;;
85662;SDS011;76094;55.506;37.950;2024-03-06T05:10:12;8.52;;;4.57;;
85662;SDS011;76094;55.506;37.950;2024-03-06T05:12:38;9.30;;;3.95;;
85662;SDS011;76094;55.506;37.950;2024-03-06T05:15:05;10.20;;;3.95;;
85662;SDS011;76094;55.506;37.950;2024-03-06T05:17:34;8.70;;;4.50;;
85662;SDS011;76094;55.506;37.950;2024-03-06T05:20:01;11.00;;;4.18;;
85662;SDS011;76094;55.506;37.950;2024-03-06T05:22:30;15.45;;;4.13;;
85662;SDS011;76094;55.506;37.950;2024-03-06T05:24:57;7.35;;;4.53;;
85662;SDS011;76094;55.506;37.950;2024-03-06T05:27:24;24.23;;;4.57;;
85662;SDS011;76094;55.506;37.950;2024-03-06T05:29:52;8.63;;;4.88;;
85662;SDS011;76094;55.506;37.950;2024-03-06T05:32:19;13.63;;;5.07;;
85662;SDS011;76094;55.506;37.950;2024-03-06T05:34:47;13.25;;;5.22;;
85662;SDS011;76094;55.506;37.950;2024-03-06T05:37:13;11.45;;;5.82;;
85662;SDS011;76094;55.506;37.950;2024-03-06T05:39:39;9.52;;;5.07;;
85662;SDS011;76094;55.506;37.950;2024-03-06T05:42:08;8.48;;;5.70;;
85662;SDS011;76094;55.506;37.950;2024-03-06T05:44:34;9.45;;;4.88;;
85662;SDS011;76094;55.506;37.950;2024-03-06T05:47:01;13.50;;;5.25;;
85662;SDS011;76094;55.506;37.950;2024-03-06T05:49:28;8.52;;;4.90;;
85662;SDS011;76094;55.506;37.950;2024-03-06T05:51:55;8.95;;;4.68;;
85662;SDS011;76094;55.506;37.950;2024-03-06T05:54:22;11.57;;;5.13;;
85662;SDS011;76094;55.506;37.950;2024-03-06T05:56:49;11.88;;;5.75;;
85662;SDS011;76094;55.506;37.950;2024-03-06T05:59:15;8.52;;;5.05;;
85662;SDS011;76094;55.506;37.950;2024-03-06T06:01:42;17.17;;;5.68;;
85662;SDS011;76094;55.506;37.950;2024-03-06T06:04:09;14.73;;;6.22;;
85662;SDS011;76094;55.506;37.950;2024-03-06T06:06:36;32.50;;;6.45;;
85662;SDS011;76094;55.506;37.950;2024-03-06T06:09:03;11.43;;;6.38;;
85662;SDS011;76094;55.506;37.950;2024-03-06T06:11:33;11.57;;;5.53;;
85662;SDS011;76094;55.506;37.950;2024-03-06T06:14:00;17.15;;;6.28;;
85662;SDS011;76094;55.506;37.950;2024-03-06T06:16:26;20.20;;;7.47;;
85662;SDS011;76094;55.506;37.950;2024-03-06T06:18:53;19.00;;;7.78;;
85662;SDS011;76094;55.506;37.950;2024-03-06T06:21:19;20.23;;;6.32;;
85662;SDS011;76094;55.506;37.950;2024-03-06T06:23:45;11.75;;;5.82;;
85662;SDS011;76094;55.506;37.950;2024-03-06T06:26:13;16.15;;;5.05;;
85662;SDS011;76094;55.506;37.950;2024-03-06T06:28:42;13.07;;;4.75;;
85662;SDS011;76094;55.506;37.950;2024-03-06T06:31:10;11.52;;;5.00;;
85662;SDS011;76094;55.506;37.950;2024-03-06T06:33:36;16.85;;;5.43;;
85662;SDS011;76094;55.506;37.950;2024-03-06T06:36:03;12.15;;;5.82;;
85662;SDS011;76094;55.506;37.950;2024-03-06T06:38:30;13.18;;;6.20;;
85662;SDS011;76094;55.506;37.950;2024-03-06T06:40:56;11.07;;;5.40;;
85662;SDS011;76094;55.506;37.950;2024-03-06T06:43:23;14.25;;;5.57;;
85662;SDS011;76094;55.506;37.950;2024-03-06T06:45:50;11.82;;;5.57;;
85662;SDS011;76094;55.506;37.950;2024-03-06T06:48:16;10.73;;;5.65;;
85662;SDS011;76094;55.506;37.950;2024-03-06T06:50:44;9.57;;;5.28;;
85662;SDS011;76094;55.506;37.950;2024-03-06T06:53:13;15.77;;;5.13;;
85662;SDS011;76094;55.506;37.950;2024-03-06T06:55:40;11.13;;;6.18;;
85662;SDS011;76094;55.506;37.950;2024-03-06T06:58:06;13.70;;;5.15;;
85662;SDS011;76094;55.506;37.950;2024-03-06T07:00:33;11.27;;;4.75;;
85662;SDS011;76094;55.506;37.950;2024-03-06T07:03:00;16.52;;;5.38;;
85662;SDS011;76094;55.506;37.950;2024-03-06T07:05:26;10.63;;;5.10;;
85662;SDS011;76094;55.506;37.950;2024-03-06T07:07:53;14.23;;;4.82;;
85662;SDS011;76094;55.506;37.950;2024-03-06T07:10:20;10.85;;;4.97;;
85662;SDS011;76094;55.506;37.950;2024-03-06T07:12:46;12.63;;;5.45;;
85662;SDS011;76094;55.506;37.950;2024-03-06T07:15:12;15.07;;;5.03;;
85662;SDS011;76094;55.506;37.950;2024-03-06T07:17:39;12.43;;;5.20;;
85662;SDS011;76094;55.506;37.950;2024-03-06T07:20:05;9.10;;;5.10;;
85662;SDS011;76094;55.506;37.950;2024-03-06T07:22:34;13.98;;;5.32;;
85662;SDS011;76094;55.506;37.950;2024-03-06T07:25:01;8.57;;;4.85;;
85662;SDS011;76094;55.506;37.950;2024-03-06T07:27:30;12.07;;;4.50;;
85662;SDS011;76094;55.506;37.950;2024-03-06T07:29:56;10.57;;;4.60;;
85662;SDS011;76094;55.506;37.950;2024-03-06T07:32:23;8.50;;;4.82;;
85662;SDS011;76094;55.506;37.950;2024-03-06T07:34:49;10.10;;;5.47;;
85662;SDS011;76094;55.506;37.950;2024-03-06T07:37:15;13.48;;;4.25;;
85662;SDS011;76094;55.506;37.950;2024-03-06T07:39:43;13.13;;;4.45;;
85662;SDS011;76094;55.506;37.950;2024-03-06T07:42:10;13.38;;;4.32;;
85662;SDS011;76094;55.506;37.950;2024-03-06T07:44:36;8.80;;;4.00;;
85662;SDS011;76094;55.506;37.950;2024-03-06T07:47:03;6.82;;;4.18;;
85662;SDS011;76094;55.506;37.950;2024-03-06T07:49:29;8.25;;;4.55;;
85662;SDS011;76094;55.506;37.950;2024-03-06T07:51:57;15.30;;;6.03;;
85662;SDS011;76094;55.506;37.950;2024-03-06T07:54:24;14.10;;;4.90;;
85662;SDS011;76094;55.506;37.950;2024-03-06T07:56:50;9.02;;;4.47;;
85662;SDS011;76094;55.506;37.950;2024-03-06T07:59:17;12.15;;;4.88;;
85662;SDS011;76094;55.506;37.950;2024-03-06T08:01:44;12.35;;;4.60;;
85662;SDS011;76094;55.506;37.950;2024-03-06T08:04:10;11.27;;;6.38;;
85662;SDS011;76094;55.506;37.950;2024-03-06T08:06:36;11.48;;;4.90;;
85662;SDS011;76094;55.506;37.950;2024-03-06T08:09:03;16.90;;;4.47;;
85662;SDS011;76094;55.506;37.950;2024-03-06T08:11:31;10.70;;;4.63;;
85662;SDS011;76094;55.506;37.950;2024-03-06T08:13:57;12.20;;;4.30;;
85662;SDS011;76094;55.506;37.950;2024-03-06T08:16:24;9.45;;;4.57;;
85662;SDS011;76094;55.506;37.950;2024-03-06T08:18:51;7.75;;;4.13;;
85662;SDS011;76094;55.506;37.950;2024-03-06T08:21:17;11.32;;;4.30;;
85662;SDS011;76094;55.506;37.950;2024-03-06T08:23:45;10.65;;;4.68;;
85662;SDS011;76094;55.506;37.950;2024-03-06T08:26:13;6.65;;;4.47;;
85662;SDS011;76094;55.506;37.950;2024-03-06T08:28:39;12.93;;;5.25;;
85662;SDS011;76094;55.506;37.950;2024-03-06T08:31:05;6.65;;;4.18;;
85662;SDS011;76094;55.506;37.950;2024-03-06T08:33:34;6.35;;;4.32;;
85662;SDS011;76094;55.506;37.950;2024-03-06T08:36:00;14.90;;;4.60;;
85662;SDS011;76094;55.506;37.950;2024-03-06T08:38:27;17.15;;;5.47;;
85662;SDS011;76094;55.506;37.950;2024-03-06T08:40:53;10.60;;;4.82;;
85662;SDS011;76094;55.506;37.950;2024-03-06T08:43:19;16.20;;;5.97;;
85662;SDS011;76094;55.506;37.950;2024-03-06T08:45:46;11.57;;;4.68;;
85662;SDS011;76094;55.506;37.950;2024-03-06T08:48:12;10.35;;;5.30;;
85662;SDS011;76094;55.506;37.950;2024-03-06T08:50:39;13.38;;;4.57;;
85662;SDS011;76094;55.506;37.950;2024-03-06T08:53:05;8.38;;;4.70;;
85662;SDS011;76094;55.506;37.950;2024-03-06T08:55:32;11.23;;;4.68;;
85662;SDS011;76094;55.506;37.950;2024-03-06T08:57:58;11.52;;;4.60;;
85662;SDS011;76094;55.506;37.950;2024-03-06T09:00:27;6.45;;;4.13;;
85662;SDS011;76094;55.506;37.950;2024-03-06T09:02:53;9.73;;;4.65;;
85662;SDS011;76094;55.506;37.950;2024-03-06T09:05:19;7.72;;;4.50;;
85662;SDS011;76094;55.506;37.950;2024-03-06T09:07:48;12.18;;;4.75;;
85662;SDS011;76094;55.506;37.950;2024-03-06T09:10:14;11.02;;;5.68;;
85662;SDS011;76094;55.506;37.950;2024-03-06T09:12:40;16.65;;;6.70;;
85662;SDS011;76094;55.506;37.950;2024-03-06T09:15:07;11.57;;;5.70;;
85662;SDS011;76094;55.506;37.950;2024-03-06T09:17:35;13.80;;;4.75;;
85662;SDS011;76094;55.506;37.950;2024-03-06T09:20:01;8.13;;;4.05;;
85662;SDS011;76094;55.506;37.950;2024-03-06T09:22:37;11.50;;;4.10;;
85662;SDS011;76094;55.506;37.950;2024-03-06T09:25:04;8.85;;;4.22;;
85662;SDS011;76094;55.506;37.950;2024-03-06T09:27:31;10.52;;;4.60;;
85662;SDS011;76094;55.506;37.950;2024-03-06T09:29:58;13.65;;;4.43;;
85662;SDS011;76094;55.506;37.950;2024-03-06T09:32:25;9.10;;;4.63;;
85662;SDS011;76094;55.506;37.950;2024-03-06T09:34:52;11.02;;;5.18;;
85662;SDS011;76094;55.506;37.950;2024-03-06T09:37:19;14.85;;;5.43;;
85662;SDS011;76094;55.506;37.950;2024-03-06T09:39:46;16.48;;;4.78;;
85662;SDS011;76094;55.506;37.950;2024-03-06T09:42:14;8.90;;;4.40;;
85662;SDS011;76094;55.506;37.950;2024-03-06T09:44:41;10.52;;;4.63;;
85662;SDS011;76094;55.506;37.950;2024-03-06T09:47:07;12.70;;;4.68;;
85662;SDS011;76094;55.506;37.950;2024-03-06T09:49:39;8.68;;;4.85;;
85662;SDS011;76094;55.506;37.950;2024-03-06T09:52:06;18.80;;;4.80;;
85662;SDS011;76094;55.506;37.950;2024-03-06T09:54:33;9.55;;;4.97;;
85662;SDS011;76094;55.506;37.950;2024-03-06T09:56:59;12.73;;;4.43;;
85662;SDS011;76094;55.506;37.950;2024-03-06T09:59:26;10.43;;;4.03;;
85662;SDS011;76094;55.506;37.950;2024-03-06T10:01:53;6.82;;;4.00;;
85662;SDS011;76094;55.506;37.950;2024-03-06T10:04:25;6.10;;;3.70;;
85662;SDS011;76094;55.506;37.950;2024-03-06T10:06:54;6.97;;;3.45;;
85662;SDS011;76094;55.506;37.950;2024-03-06T10:09:21;7.95;;;3.88;;
85662;SDS011;76094;55.506;37.950;2024-03-06T10:11:48;8.75;;;3.78;;
85662;SDS011;76094;55.506;37.950;2024-03-06T10:14:15;11.48;;;3.92;;
85662;SDS011;76094;55.506;37.950;2024-03-06T10:16:51;10.43;;;3.92;;
85662;SDS011;76094;55.506;37.950;2024-03-06T10:19:18;8.05;;;3.05;;
85662;SDS011;76094;55.506;37.950;2024-03-06T10:21:46;8.32;;;3.80;;
85662;SDS011;76094;55.506;37.950;2024-03-06T10:24:18;7.10;;;3.55;;
85662;SDS011;76094;55.506;37.950;2024-03-06T10:26:46;10.48;;;3.53;;
85662;SDS011;76094;55.506;37.950;2024-03-06T10:29:16;10.27;;;4.03;;
85662;SDS011;76094;55.506;37.950;2024-03-06T10:31:51;8.98;;;3.72;;
85662;SDS011;76094;55.506;37.950;2024-03-06T10:34:21;10.90;;;4.13;;
85662;SDS011;76094;55.506;37.950;2024-03-06T10:36:49;6.65;;;3.65;;
85662;SDS011;76094;55.506;37.950;2024-03-06T10:39:20;11.00;;;3.45;;
85662;SDS011;76094;55.506;37.950;2024-03-06T10:41:54;7.20;;;3.25;;
85662;SDS011;76094;55.506;37.950;2024-03-06T10:44:22;11.88;;;4.15;;
85662;SDS011;76094;55.506;37.950;2024-03-06T10:46:56;9.43;;;3.90;;
85662;SDS011;76094;55.506;37.950;2024-03-06T10:49:26;5.72;;;3.33;;
85662;SDS011;76094;55.506;37.950;2024-03-06T10:51:57;8.85;;;3.90;;
85662;SDS011;76094;55.506;37.950;2024-03-06T10:54:27;6.22;;;3.25;;
85662;SDS011;76094;55.506;37.950;2024-03-06T10:56:56;8.10;;;3.08;;
85662;SDS011;76094;55.506;37.950;2024-03-06T10:59:26;7.53;;;2.97;;
85662;SDS011;76094;55.506;37.950;2024-03-06T11:01:57;6.07;;;3.10;;
85662;SDS011;76094;55.506;37.950;2024-03-06T11:04:28;5.82;;;2.90;;
85662;SDS011;76094;55.506;37.950;2024-03-06T11:06:56;5.68;;;3.05;;
85662;SDS011;76094;55.506;37.950;2024-03-06T11:09:32;7.00;;;3.70;;
85662;SDS011;76094;55.506;37.950;2024-03-06T11:12:01;6.30;;;3.20;;
85662;SDS011;76094;55.506;37.950;2024-03-06T11:14:30;8.38;;;3.15;;
85662;SDS011;76094;55.506;37.950;2024-03-06T11:19:24;8.63;;;2.83;;
85662;SDS011;76094;55.506;37.950;2024-03-06T11:21:51;6.22;;;3.08;;
85662;SDS011;76094;55.506;37.950;2024-03-06T11:24:20;7.05;;;2.75;;
85662;SDS011;76094;55.506;37.950;2024-03-06T11:26:55;14.02;;;3.00;;
85662;SDS011;76094;55.506;37.950;2024-03-06T11:29:23;6.18;;;3.50;;
85662;SDS011;76094;55.506;37.950;2024-03-06T11:31:57;6.68;;;3.40;;
85662;SDS011;76094;55.506;37.950;2024-03-06T11:34:26;7.17;;;3.27;;
85662;SDS011;76094;55.506;37.950;2024-03-06T11:36:53;6.97;;;3.25;;
85662;SDS011;76094;55.506;37.950;2024-03-06T11:39:22;6.28;;;3.30;;
85662;SDS011;76094;55.506;37.950;2024-03-06T11:41:49;7.40;;;2.85;;
85662;SDS011;76094;55.506;37.950;2024-03-06T11:44:19;9.77;;;3.67;;
85662;SDS011;76094;55.506;37.950;2024-03-06T11:46:48;6.68;;;3.28;;
85662;SDS011;76094;55.506;37.950;2024-03-06T11:49:21;8.00;;;3.70;;
85662;SDS011;76094;55.506;37.950;2024-03-06T11:51:59;5.05;;;2.80;;
85662;SDS011;76094;55.506;37.950;2024-03-06T11:54:26;6.35;;;3.08;;
85662;SDS011;76094;55.506;37.950;2024-03-06T11:56:54;7.43;;;3.22;;
85662;SDS011;76094;55.506;37.950;2024-03-06T11:59:25;6.40;;;3.05;;
85662;SDS011;76094;55.506;37.950;2024-03-06T12:01:53;8.32;;;3.15;;
85662;SDS011;76094;55.506;37.950;2024-03-06T12:04:20;6.70;;;2.97;;
85662;SDS011;76094;55.506;37.950;2024-03-06T12:06:50;6.03;;;3.05;;
85662;SDS011;76094;55.506;37.950;2024-03-06T12:09:16;9.15;;;2.70;;
85662;SDS011;76094;55.506;37.950;2024-03-06T12:11:43;5.80;;;2.80;;
85662;SDS011;76094;55.506;37.950;2024-03-06T12:14:13;5.13;;;2.75;;
85662;SDS011;76094;55.506;37.950;2024-03-06T12:16:43;11.02;;;3.03;;
85662;SDS011;76094;55.506;37.950;2024-03-06T12:19:33;3.88;;;2.33;;
85662;SDS011;76094;55.506;37.950;2024-03-06T12:22:02;12.50;;;2.85;;
85662;SDS011;76094;55.506;37.950;2024-03-06T12:24:30;7.38;;;3.05;;
85662;SDS011;76094;55.506;37.950;2024-03-06T12:27:04;6.20;;;3.10;;
85662;SDS011;76094;55.506;37.950;2024-03-06T12:29:32;7.07;;;2.60;;
85662;SDS011;76094;55.506;37.950;2024-03-06T12:32:00;6.50;;;2.90;;
85662;SDS011;76094;55.506;37.950;2024-03-06T12:34:28;8.48;;;2.75;;
85662;SDS011;76094;55.506;37.950;2024-03-06T12:36:56;5.78;;;2.72;;
85662;SDS011;76094;55.506;37.950;2024-03-06T12:39:23;9.02;;;3.40;;
85662;SDS011;76094;55.506;37.950;2024-03-06T12:41:50;7.60;;;2.83;;
85662;SDS011;76094;55.506;37.950;2024-03-06T12:44:17;6.55;;;2.78;;
85662;SDS011;76094;55.506;37.950;2024-03-06T12:46:44;8.63;;;3.22;;
85662;SDS011;76094;55.506;37.950;2024-03-06T12:49:11;6.00;;;2.35;;
85662;SDS011;76094;55.506;37.950;2024-03-06T12:51:37;7.90;;;2.65;;
85662;SDS011;76094;55.506;37.950;2024-03-06T12:54:03;6.65;;;2.75;;
85662;SDS011;76094;55.506;37.950;2024-03-06T12:56:30;9.35;;;2.85;;
85662;SDS011;76094;55.506;37.950;2024-03-06T12:58:56;6.70;;;2.65;;
85662;SDS011;76094;55.506;37.950;2024-03-06T13:01:23;7.10;;;3.30;;
85662;SDS011;76094;55.506;37.950;2024-03-06T13:03:49;17.08;;;4.65;;
85662;SDS011;76094;55.506;37.950;2024-03-06T13:06:15;9.15;;;3.20;;
85662;SDS011;76094;55.506;37.950;2024-03-06T13:08:42;9.48;;;3.33;;
85662;SDS011;76094;55.506;37.950;2024-03-06T13:11:08;9.13;;;3.15;;
85662;SDS011;76094;55.506;37.950;2024-03-06T13:13:35;12.88;;;4.43;;
85662;SDS011;76094;55.506;37.950;2024-03-06T13:16:02;8.18;;;3.22;;
85662;SDS011;76094;55.506;37.950;2024-03-06T13:18:29;9.02;;;3.42;;
85662;SDS011;76094;55.506;37.950;2024-03-06T13:20:55;7.38;;;3.42;;
85662;SDS011;76094;55.506;37.950;2024-03-06T13:23:24;10.20;;;3.80;;
85662;SDS011;76094;55.506;37.950;2024-03-06T13:25:50;14.35;;;3.42;;
85662;SDS011;76094;55.506;37.950;2024-03-06T13:28:17;7.15;;;3.17;;
85662;SDS011;76094;55.506;37.950;2024-03-06T13:30:43;9.90;;;2.47;;
85662;SDS011;76094;55.506;37.950;2024-03-06T13:33:10;6.90;;;2.75;;
85662;SDS011;76094;55.506;37.950;2024-03-06T13:35:37;12.40;;;2.60;;
85662;SDS011;76094;55.506;37.950;2024-03-06T13:38:03;13.32;;;5.75;;
85662;SDS011;76094;55.506;37.950;2024-03-06T13:40:29;6.30;;;2.97;;
85662;SDS011;76094;55.506;37.950;2024-03-06T13:42:56;7.85;;;3.45;;
85662;SDS011;76094;55.506;37.950;2024-03-06T13:45:22;9.68;;;2.70;;
85662;SDS011;76094;55.506;37.950;2024-03-06T13:47:49;4.82;;;2.20;;
85662;SDS011;76094;55.506;37.950;2024-03-06T13:50:16;8.48;;;2.40;;
85662;SDS011;76094;55.506;37.950;2024-03-06T13:52:43;5.55;;;2.45;;
85662;SDS011;76094;55.506;37.950;2024-03-06T13:55:09;9.07;;;2.40;;
85662;SDS011;76094;55.506;37.950;2024-03-06T13:57:36;10.57;;;2.83;;
85662;SDS011;76094;55.506;37.950;2024-03-06T14:00:04;7.88;;;2.50;;
85662;SDS011;76094;55.506;37.950;2024-03-06T14:02:38;7.72;;;3.17;;
85662;SDS011;76094;55.506;37.950;2024-03-06T14:05:05;7.53;;;3.15;;
85662;SDS011;76094;55.506;37.950;2024-03-06T14:07:33;19.57;;;3.30;;
85662;SDS011;76094;55.506;37.950;2024-03-06T14:10:01;9.40;;;3.50;;
85662;SDS011;76094;55.506;37.950;2024-03-06T14:12:31;5.75;;;3.05;;
85662;SDS011;76094;55.506;37.950;2024-03-06T14:14:57;9.27;;;2.88;;
85662;SDS011;76094;55.506;37.950;2024-03-06T14:17:23;15.50;;;3.55;;
85662;SDS011;76094;55.506;37.950;2024-03-06T14:19:50;18.92;;;3.25;;
85662;SDS011;76094;55.506;37.950;2024-03-06T14:22:16;7.13;;;2.85;;
85662;SDS011;76094;55.506;37.950;2024-03-06T14:24:42;7.60;;;3.47;;
85662;SDS011;76094;55.506;37.950;2024-03-06T14:27:09;11.13;;;3.05;;
85662;SDS011;76094;55.506;37.950;2024-03-06T14:29:35;9.30;;;3.03;;
85662;SDS011;76094;55.506;37.950;2024-03-06T14:32:01;14.95;;;3.13;;
85662;SDS011;76094;55.506;37.950;2024-03-06T14:34:29;13.82;;;3.40;;
85662;SDS011;76094;55.506;37.950;2024-03-06T14:36:55;13.30;;;3.28;;
85662;SDS011;76094;55.506;37.950;2024-03-06T14:39:21;6.53;;;3.42;;
85662;SDS011;76094;55.506;37.950;2024-03-06T14:41:49;31.50;;;3.65;;
85662;SDS011;76094;55.506;37.950;2024-03-06T14:44:16;20.08;;;3.55;;
85662;SDS011;76094;55.506;37.950;2024-03-06T14:46:42;9.55;;;3.95;;
85662;SDS011;76094;55.506;37.950;2024-03-06T14:49:09;21.27;;;6.30;;
85662;SDS011;76094;55.506;37.950;2024-03-06T14:51:36;21.17;;;7.50;;
85662;SDS011;76094;55.506;37.950;2024-03-06T14:54:02;28.80;;;7.95;;
85662;SDS011;76094;55.506;37.950;2024-03-06T14:56:29;26.75;;;7.15;;
85662;SDS011;76094;55.506;37.950;2024-03-06T14:58:57;15.88;;;6.78;;
85662;SDS011;76094;55.506;37.950;2024-03-06T15:01:24;20.08;;;6.75;;
85662;SDS011;76094;55.506;37.950;2024-03-06T15:03:51;24.63;;;7.03;;
85662;SDS011;76094;55.506;37.950;2024-03-06T15:06:19;15.63;;;6.38;;
85662;SDS011;76094;55.506;37.950;2024-03-06T15:08:46;18.35;;;6.15;;
85662;SDS011;76094;55.506;37.950;2024-03-06T15:11:13;15.88;;;5.97;;
85662;SDS011;76094;55.506;37.950;2024-03-06T15:13:40;17.52;;;6.50;;
85662;SDS011;76094;55.506;37.950;2024-03-06T15:16:07;25.23;;;6.32;;
85662;SDS011;76094;55.506;37.950;2024-03-06T15:18:34;22.73;;;5.35;;
85662;SDS011;76094;55.506;37.950;2024-03-06T15:21:01;14.50;;;5.60;;
85662;SDS011;76094;55.506;37.950;2024-03-06T15:23:27;17.00;;;4.50;;
85662;SDS011;76094;55.506;37.950;2024-03-06T15:25:54;11.38;;;4.25;;
85662;SDS011;76094;55.506;37.950;2024-03-06T15:28:21;11.40;;;4.57;;
85662;SDS011;76094;55.506;37.950;2024-03-06T15:30:48;14.32;;;4.15;;
85662;SDS011;76094;55.506;37.950;2024-03-06T15:33:15;22.65;;;4.18;;
85662;SDS011;76094;55.506;37.950;2024-03-06T15:35:42;16.15;;;4.88;;
85662;SDS011;76094;55.506;37.950;2024-03-06T15:38:09;15.95;;;4.10;;
85662;SDS011;76094;55.506;37.950;2024-03-06T15:40:35;11.27;;;3.85;;
85662;SDS011;76094;55.506;37.950;2024-03-06T15:43:02;11.98;;;3.88;;
85662;SDS011;76094;55.506;37.950;2024-03-06T15:45:29;11.90;;;3.78;;
85662;SDS011;76094;55.506;37.950;2024-03-06T15:47:56;16.20;;;4.13;;
85662;SDS011;76094;55.506;37.950;2024-03-06T15:50:22;11.75;;;3.35;;
85662;SDS011;76094;55.506;37.950;2024-03-06T15:52:49;6.30;;;3.47;;
85662;SDS011;76094;55.506;37.950;2024-03-06T15:55:15;12.23;;;3.83;;
85662;SDS011;76094;55.506;37.950;2024-03-06T15:57:43;7.75;;;3.40;;
85662;SDS011;76094;55.506;37.950;2024-03-06T16:00:11;17.00;;;4.47;;
85662;SDS011;76094;55.506;37.950;2024-03-06T16:02:41;9.32;;;4.53;;
85662;SDS011;76094;55.506;37.950;2024-03-06T16:05:08;17.10;;;5.68;;
85662;SDS011;76094;55.506;37.950;2024-03-06T16:07:35;29.10;;;5.63;;
85662;SDS011;76094;55.506;37.950;2024-03-06T16:10:01;13.90;;;4.80;;
85662;SDS011;76094;55.506;37.950;2024-03-06T16:12:29;17.33;;;6.43;;
85662;SDS011;76094;55.506;37.950;2024-03-06T16:14:56;20.00;;;6.65;;
85662;SDS011;76094;55.506;37.950;2024-03-06T16:17:22;18.60;;;7.40;;
85662;SDS011;76094;55.506;37.950;2024-03-06T16:19:48;14.23;;;5.63;;
85662;SDS011;76094;55.506;37.950;2024-03-06T16:22:15;17.65;;;5.65;;
85662;SDS011;76094;55.506;37.950;2024-03-06T16:24:42;12.98;;;6.82;;
85662;SDS011;76094;55.506;37.950;2024-03-06T16:27:08;26.60;;;7.88;;
85662;SDS011;76094;55.506;37.950;2024-03-06T16:29:35;10.98;;;5.90;;
85662;SDS011;76094;55.506;37.950;2024-03-06T16:32:01;14.32;;;6.75;;
85662;SDS011;76094;55.506;37.950;2024-03-06T16:34:34;18.83;;;6.30;;
85662;SDS011;76094;55.506;37.950;2024-03-06T16:37:00;10.20;;;4.95;;
85662;SDS011;76094;55.506;37.950;2024-03-06T16:39:28;20.10;;;7.55;;
85662;SDS011;76094;55.506;37.950;2024-03-06T16:41:56;16.17;;;5.97;;
85662;SDS011;76094;55.506;37.950;2024-03-06T16:44:22;22.58;;;5.93;;
85662;SDS011;76094;55.506;37.950;2024-03-06T16:46:49;17.48;;;6.18;;
85662;SDS011;76094;55.506;37.950;2024-03-06T16:49:15;15.50;;;7.75;;
85662;SDS011;76094;55.506;37.950;2024-03-06T16:51:42;17.85;;;6.25;;
85662;SDS011;76094;55.506;37.950;2024-03-06T16:54:08;23.85;;;6.93;;
85662;SDS011;76094;55.506;37.950;2024-03-06T16:56:34;33.95;;;9.23;;
85662;SDS011;76094;55.506;37.950;2024-03-06T16:59:00;17.83;;;7.03;;
85662;SDS011;76094;55.506;37.950;2024-03-06T17:01:27;18.38;;;6.38;;
85662;SDS011;76094;55.506;37.950;2024-03-06T17:03:53;13.40;;;5.60;;
85662;SDS011;76094;55.506;37.950;2024-03-06T17:06:19;13.88;;;6.18;;
85662;SDS011;76094;55.506;37.950;2024-03-06T17:08:46;16.88;;;5.43;;
85662;SDS011;76094;55.506;37.950;2024-03-06T17:11:12;21.58;;;6.18;;
85662;SDS011;76094;55.506;37.950;2024-03-06T17:13:38;15.60;;;5.65;;
85662;SDS011;76094;55.506;37.950;2024-03-06T17:16:06;15.82;;;5.55;;
85662;SDS011;76094;55.506;37.950;2024-03-06T17:18:34;15.38;;;6.13;;
85662;SDS011;76094;55.506;37.950;2024-03-06T17:21:02;22.65;;;7.05;;
85662;SDS011;76094;55.506;37.950;2024-03-06T17:23:30;22.65;;;6.13;;
85662;SDS011;76094;55.506;37.950;2024-03-06T17:25:58;18.80;;;6.43;;
85662;SDS011;76094;55.506;37.950;2024-03-06T17:28:24;12.98;;;5.72;;
85662;SDS011;76094;55.506;37.950;2024-03-06T17:30:51;17.48;;;5.60;;
85662;SDS011;76094;55.506;37.950;2024-03-06T17:33:19;16.42;;;6.30;;
85662;SDS011;76094;55.506;37.950;2024-03-06T17:35:46;14.60;;;5.95;;
85662;SDS011;76094;55.506;37.950;2024-03-06T17:38:14;17.38;;;6.28;;
85662;SDS011;76094;55.506;37.950;2024-03-06T17:40:41;17.88;;;6.80;;
85662;SDS011;76094;55.506;37.950;2024-03-06T17:43:10;24.48;;;7.13;;
85662;SDS011;76094;55.506;37.950;2024-03-06T17:45:37;17.88;;;6.50;;
85662;SDS011;76094;55.506;37.950;2024-03-06T17:48:03;15.57;;;6.15;;
85662;SDS011;76094;55.506;37.950;2024-03-06T17:50:30;28.13;;;6.18;;
85662;SDS011;76094;55.506;37.950;2024-03-06T17:52:59;18.85;;;5.78;;
85662;SDS011;76094;55.506;37.950;2024-03-06T17:55:26;29.92;;;6.63;;
85662;SDS011;76094;55.506;37.950;2024-03-06T17:57:53;29.00;;;7.18;;
85662;SDS011;76094;55.506;37.950;2024-03-06T18:00:19;26.15;;;6.30;;
85662;SDS011;76094;55.506;37.950;2024-03-06T18:02:45;22.95;;;6.35;;
85662;SDS011;76094;55.506;37.950;2024-03-06T18:05:12;15.82;;;5.80;;
85662;SDS011;76094;55.506;37.950;2024-03-06T18:07:40;17.48;;;5.43;;
85662;SDS011;76094;55.506;37.950;2024-03-06T18:10:07;20.98;;;7.72;;
85662;SDS011;76094;55.506;37.950;2024-03-06T18:12:34;19.65;;;9.43;;
85662;SDS011;76094;55.506;37.950;2024-03-06T18:15:01;27.88;;;9.82;;
85662;SDS011;76094;55.506;37.950;2024-03-06T18:17:30;37.83;;;12.05;;
85662;SDS011;76094;55.506;37.950;2024-03-06T18:19:56;43.00;;;10.95;;
85662;SDS011;76094;55.506;37.950;2024-03-06T18:22:23;27.67;;;7.20;;
85662;SDS011;76094;55.506;37.950;2024-03-06T18:24:49;18.95;;;7.38;;
85662;SDS011;76094;55.506;37.950;2024-03-06T18:27:16;17.45;;;7.05;;
85662;SDS011;76094;55.506;37.950;2024-03-06T18:29:43;28.92;;;6.97;;
85662;SDS011;76094;55.506;37.950;2024-03-06T18:32:13;27.65;;;5.80;;
85662;SDS011;76094;55.506;37.950;2024-03-06T18:34:40;23.90;;;6.25;;
85662;SDS011;76094;55.506;37.950;2024-03-06T18:37:08;24.70;;;5.63;;
85662;SDS011;76094;55.506;37.950;2024-03-06T18:39:34;30.60;;;6.57;;
85662;SDS011;76094;55.506;37.950;2024-03-06T18:42:00;13.57;;;5.72;;
85662;SDS011;76094;55.506;37.950;2024-03-06T18:44:27;17.58;;;6.53;;
85662;SDS011;76094;55.506;37.950;2024-03-06T18:46:53;17.80;;;5.78;;
85662;SDS011;76094;55.506;37.950;2024-03-06T18:49:21;16.08;;;5.65;;
85662;SDS011;76094;55.506;37.950;2024-03-06T18:51:48;29.40;;;6.57;;
85662;SDS011;76094;55.506;37.950;2024-03-06T18:54:15;22.65;;;7.18;;